Time;durP1;ratioP1;P1;durP2;ratioP2;P2;SDS_P1;SDS_P2;PMS_P1;PMS_P2;Temp;Humidity;BMP_temperature;BMP_pressure;BME280_temperature;BME280_humidity;BME280_pressure;Samples;Min_cycle;Max_cycle;Signal;HPM_P1;HPM_P2
2021/05/14 00:01:04;;;;;;;3.90;2.50;;;;;;;10.32;99.06;99518.67;639261;222;32517;-74
2021/05/14 00:03:32;;;;;;;2.10;2.00;;;;;;;9.91;100.00;99526.34;653327;217;25125;-74
2021/05/14 00:05:59;;;;;;;2.90;2.50;;;;;;;9.67;100.00;99522.36;656749;216;24806;-76
2021/05/14 00:08:27;;;;;;;2.43;2.20;;;;;;;9.63;100.00;99527.54;653872;217;24823;-76
2021/05/14 00:10:55;;;;;;;2.87;2.27;;;;;;;9.52;100.00;99528.13;641668;222;25499;-76
2021/05/14 00:13:23;;;;;;;2.60;2.40;;;;;;;9.57;100.00;99523.80;639789;219;32688;-76
2021/05/14 00:15:51;;;;;;;2.83;2.63;;;;;;;9.46;100.00;99526.17;645801;220;23696;-76
2021/05/14 00:18:19;;;;;;;2.83;2.60;;;;;;;9.38;100.00;99524.82;644709;221;27952;-76
2021/05/14 00:20:47;;;;;;;3.80;2.63;;;;;;;9.53;100.00;99525.87;642908;221;24831;-77
2021/05/14 00:23:15;;;;;;;3.40;2.80;;;;;;;9.55;100.00;99523.59;644326;220;25541;-76
2021/05/14 00:25:43;;;;;;;2.63;2.33;;;;;;;9.37;100.00;99522.38;643861;221;24865;-76
2021/05/14 00:28:11;;;;;;;3.13;2.93;;;;;;;9.43;100.00;99521.30;639378;221;24814;-78
2021/05/14 00:30:39;;;;;;;3.83;2.67;;;;;;;9.54;100.00;99517.59;639668;221;24833;-76
2021/05/14 00:33:07;;;;;;;3.37;3.07;;;;;;;9.44;100.00;99516.92;640032;221;24896;-75
2021/05/14 00:35:35;;;;;;;3.10;2.80;;;;;;;9.59;100.00;99517.95;638634;220;32694;-75
2021/05/14 00:38:03;;;;;;;3.37;3.07;;;;;;;9.81;100.00;99519.16;642320;221;24820;-76
2021/05/14 00:40:32;;;;;;;3.13;2.80;;;;;;;9.53;100.00;99519.38;641495;221;24902;-76
2021/05/14 00:42:59;;;;;;;3.10;2.80;;;;;;;9.50;100.00;99519.70;635775;221;32693;-75
2021/05/14 00:45:27;;;;;;;5.20;2.93;;;;;;;9.42;100.00;99523.53;635409;221;25881;-75
2021/05/14 00:47:55;;;;;;;2.70;2.50;;;;;;;9.56;100.00;99526.52;660725;217;24913;-76
2021/05/14 00:50:23;;;;;;;4.83;2.93;;;;;;;9.45;100.00;99521.95;658781;217;24780;-75
2021/05/14 00:52:51;;;;;;;3.10;2.90;;;;;;;9.63;100.00;99527.54;641184;221;24836;-75
2021/05/14 00:55:19;;;;;;;3.10;2.87;;;;;;;9.87;100.00;99525.53;648503;221;24837;-75
2021/05/14 00:57:47;;;;;;;5.63;3.27;;;;;;;9.94;100.00;99528.63;645664;220;24857;-76
2021/05/14 01:00:16;;;;;;;3.07;2.87;;;;;;;9.93;100.00;99524.40;641294;221;25252;-76
2021/05/14 01:02:44;;;;;;;4.47;3.27;;;;;;;10.07;100.00;99519.08;644934;222;25071;-74
2021/05/14 01:05:13;;;;;;;2.77;2.57;;;;;;;10.20;100.00;99515.53;643951;222;24846;-74
2021/05/14 01:07:41;;;;;;;2.67;2.43;;;;;;;10.19;99.54;99518.30;656451;217;24784;-75
2021/05/14 01:10:10;;;;;;;2.40;2.20;;;;;;;10.17;99.34;99513.75;647005;218;25847;-76
2021/05/14 01:12:38;;;;;;;6.93;2.73;;;;;;;10.23;99.49;99515.73;640565;222;28062;-74
2021/05/14 01:15:07;;;;;;;2.83;2.63;;;;;;;10.12;99.84;99516.31;651947;217;24798;-74
2021/05/14 01:17:35;;;;;;;2.90;2.70;;;;;;;10.06;99.23;99511.77;653828;217;23801;-75
2021/05/14 01:20:04;;;;;;;3.10;2.80;;;;;;;10.19;98.67;99510.50;650332;217;24801;-74
2021/05/14 01:22:32;;;;;;;3.07;2.80;;;;;;;10.17;98.86;99515.05;657118;217;23847;-74
2021/05/14 01:25:00;;;;;;;2.80;2.55;;;;;;;10.41;97.02;99503.39;649671;215;32934;-74
2021/05/14 01:27:28;;;;;;;3.53;3.23;;;;;;;9.95;98.00;99508.16;655906;217;23674;-74
2021/05/14 01:29:56;;;;;;;3.97;3.30;;;;;;;9.59;100.00;99522.34;653561;218;24818;-74
2021/05/14 01:32:24;;;;;;;3.47;3.17;;;;;;;9.36;100.00;99520.27;649872;218;24789;-74
2021/05/14 01:34:52;;;;;;;3.77;3.23;;;;;;;9.30;100.00;99518.31;644789;221;25117;-76
2021/05/14 01:37:20;;;;;;;3.23;2.80;;;;;;;9.14;100.00;99519.00;649634;219;24795;-76
2021/05/14 01:39:48;;;;;;;3.92;3.52;;;;;;;9.33;100.00;99517.18;642727;218;32567;-75
2021/05/14 01:42:16;;;;;;;5.65;3.60;;;;;;;9.36;100.00;99515.56;644964;218;32528;-76
2021/05/14 01:44:43;;;;;;;4.43;4.03;;;;;;;9.07;100.00;99512.00;653032;218;23705;-76
2021/05/14 01:47:17;;;;;;;3.70;3.40;;;;;;;9.08;100.00;99509.73;647915;218;24784;-76
2021/05/14 01:49:45;;;;;;;3.87;3.30;;;;;;;8.98;100.00;99508.53;655274;217;25853;-76
2021/05/14 01:52:13;;;;;;;4.00;3.30;;;;;;;9.17;100.00;99506.23;652374;218;24795;-76
2021/05/14 01:54:41;;;;;;;4.70;3.40;;;;;;;9.69;100.00;99506.94;639508;218;32833;-77
2021/05/14 01:57:09;;;;;;;4.23;3.87;;;;;;;9.40;100.00;99507.31;640161;221;27931;-76
2021/05/14 01:59:37;;;;;;;4.00;3.47;;;;;;;9.52;100.00;99507.86;647268;219;24812;-76
2021/05/14 02:02:05;;;;;;;4.70;3.93;;;;;;;9.50;100.00;99504.13;655321;218;24803;-76
2021/05/14 02:04:33;;;;;;;3.00;2.80;;;;;;;9.39;100.00;99501.79;658165;217;24939;-76
2021/05/14 02:07:01;;;;;;;8.30;3.40;;;;;;;9.93;100.00;99494.53;641228;222;32697;-76
2021/05/14 02:09:29;;;;;;;3.60;3.30;;;;;;;9.69;100.00;99507.42;650935;217;24786;-76
2021/05/14 02:11:57;;;;;;;3.43;3.13;;;;;;;9.38;100.00;99508.44;647906;217;24806;-75
2021/05/14 02:14:25;;;;;;;3.33;3.13;;;;;;;9.06;100.00;99520.75;639721;222;24819;-76
2021/05/14 02:16:53;;;;;;;3.90;3.60;;;;;;;9.10;100.00;99515.09;637600;222;26042;-74
2021/05/14 02:19:21;;;;;;;5.12;3.70;;;;;;;9.63;100.00;99513.27;644889;217;32572;-74
2021/05/14 02:21:49;;;;;;;3.57;3.27;;;;;;;9.38;100.00;99511.84;647002;222;23915;-74
2021/05/14 02:24:17;;;;;;;4.30;3.50;;;;;;;9.77;99.54;99506.17;639577;222;32662;-73
2021/05/14 02:26:45;;;;;;;4.73;3.40;;;;;;;9.43;100.00;99507.48;642581;222;26982;-74
2021/05/14 02:29:13;;;;;;;3.57;3.27;;;;;;;9.51;100.00;99503.15;641504;222;25125;-74
2021/05/14 02:31:40;;;;;;;3.50;3.20;;;;;;;10.08;98.40;99499.43;642148;218;32806;-74
2021/05/14 02:34:08;;;;;;;3.60;3.30;;;;;;;9.68;98.56;99497.53;650801;218;24976;-74
2021/05/14 02:36:36;;;;;;;3.80;3.40;;;;;;;9.66;99.51;99503.86;639099;221;24845;-74
2021/05/14 02:39:05;;;;;;;4.00;3.70;;;;;;;9.47;99.96;99509.62;648759;221;24891;-74
2021/05/14 02:41:33;;;;;;;5.07;3.53;;;;;;;9.50;100.00;99504.61;648995;218;24808;-74
2021/05/14 02:44:01;;;;;;;3.77;3.40;;;;;;;9.25;100.00;99504.97;652476;218;24903;-73
2021/05/14 02:46:29;;;;;;;3.47;2.90;;;;;;;9.37;100.00;99501.14;647259;218;27055;-73
2021/05/14 02:48:57;;;;;;;3.23;3.03;;;;;;;9.34;100.00;99496.27;647769;219;24788;-74
2021/05/14 02:51:25;;;;;;;3.50;3.20;;;;;;;9.33;100.00;99494.64;647159;219;24787;-76
2021/05/14 02:53:53;;;;;;;3.53;3.23;;;;;;;9.32;100.00;99503.39;648840;218;23807;-76
2021/05/14 02:56:21;;;;;;;3.67;3.37;;;;;;;9.40;100.00;99498.23;653097;218;24798;-76
2021/05/14 02:58:49;;;;;;;3.77;3.43;;;;;;;9.42;100.00;99495.47;640437;221;24877;-75
2021/05/14 03:01:17;;;;;;;4.17;3.23;;;;;;;9.08;100.00;99494.17;646115;219;24763;-76
2021/05/14 03:03:45;;;;;;;3.80;3.40;;;;;;;9.16;100.00;99498.13;657836;217;27034;-76
2021/05/14 03:06:13;;;;;;;3.80;3.30;;;;;;;9.14;99.83;99491.77;633129;221;43391;-78
2021/05/14 03:08:41;;;;;;;4.90;3.50;;;;;;;8.78;100.00;99500.14;646203;221;24847;-76
2021/05/14 03:11:09;;;;;;;4.67;3.67;;;;;;;8.70;100.00;99500.06;642800;221;24828;-76
2021/05/14 03:13:37;;;;;;;4.23;3.80;;;;;;;8.51;100.00;99498.95;642655;221;24884;-76
2021/05/14 03:16:05;;;;;;;3.20;2.93;;;;;;;8.65;100.00;99502.31;640678;222;25133;-76
2021/05/14 03:18:33;;;;;;;3.73;3.43;;;;;;;8.80;100.00;99507.28;643079;221;24821;-75
2021/05/14 03:21:01;;;;;;;3.10;2.90;;;;;;;8.75;100.00;99503.04;643859;222;24844;-76
2021/05/14 03:23:29;;;;;;;3.53;3.23;;;;;;;8.71;100.00;99504.77;644012;221;24836;-75
2021/05/14 03:25:57;;;;;;;3.60;3.30;;;;;;;8.83;100.00;99508.27;625973;226;24889;-76
2021/05/14 03:28:25;;;;;;;4.40;2.93;;;;;;;8.92;100.00;99502.19;639411;222;24873;-75
2021/05/14 03:30:53;;;;;;;4.00;2.67;;;;;;;8.93;100.00;99501.70;642755;222;24869;-76
2021/05/14 03:33:21;;;;;;;3.40;3.10;;;;;;;8.90;100.00;99506.71;653486;217;24806;-75
2021/05/14 03:35:49;;;;;;;3.13;2.83;;;;;;;8.82;100.00;99499.34;652741;217;24799;-76
2021/05/14 03:38:17;;;;;;;3.07;2.77;;;;;;;8.79;100.00;99501.77;657071;218;24879;-76
2021/05/14 03:40:45;;;;;;;3.03;2.73;;;;;;;8.55;100.00;99502.38;645339;222;24856;-75
2021/05/14 03:43:13;;;;;;;3.40;3.10;;;;;;;8.48;100.00;99509.14;650723;218;24792;-75
2021/05/14 03:45:41;;;;;;;4.43;3.10;;;;;;;8.27;100.00;99509.39;646260;218;24806;-76
2021/05/14 03:50:43;;;;;;;3.10;2.90;;;;;;;8.16;100.00;99510.90;651683;217;24799;-74
2021/05/14 03:53:11;;;;;;;3.77;3.10;;;;;;;8.12;100.00;99503.58;639724;221;26000;-75
2021/05/14 03:55:39;;;;;;;8.40;3.17;;;;;;;8.21;100.00;99511.77;642139;221;24931;-73
2021/05/14 03:58:08;;;;;;;3.17;2.83;;;;;;;8.44;100.00;99503.09;658325;217;24780;-76
2021/05/14 04:00:36;;;;;;;3.30;3.10;;;;;;;8.50;100.00;99503.81;650834;218;27983;-76
2021/05/14 04:03:05;;;;;;;2.93;2.70;;;;;;;8.59;100.00;99500.33;639726;221;24878;-76
2021/05/14 04:05:34;;;;;;;2.53;2.33;;;;;;;8.58;100.00;99497.37;653741;217;24851;-76
2021/05/14 04:08:02;;;;;;;5.10;3.20;;;;;;;8.46;100.00;99492.94;656346;216;24790;-76
2021/05/14 04:10:46;;;;;;;8.10;3.00;;;;;;;8.64;100.00;99498.09;642560;221;24820;-75
2021/05/14 04:15:34;;;;;;;3.10;2.80;;;;;;;8.84;100.00;99500.00;639966;221;24835;-76
2021/05/14 04:18:02;;;;;;;2.77;2.53;;;;;;;9.09;99.29;99488.02;645115;221;24836;-76
2021/05/14 04:20:30;;;;;;;3.80;3.30;;;;;;;9.02;99.24;99493.50;648990;218;28028;-76
2021/05/14 04:22:57;;;;;;;3.53;2.63;;;;;;;8.90;99.91;99502.83;645486;219;24782;-76
2021/05/14 04:25:26;;;;;;;3.47;3.23;;;;;;;9.42;99.27;99504.55;641446;222;24815;-75
2021/05/14 04:27:54;;;;;;;3.60;2.67;;;;;;;9.46;97.37;99500.70;639745;222;25939;-76
2021/05/14 04:30:22;;;;;;;3.67;2.60;;;;;;;9.39;96.62;99504.87;641926;222;24930;-74
2021/05/14 04:32:50;;;;;;;3.40;2.33;;;;;;;9.43;96.08;99501.83;653020;217;25065;-74
2021/05/14 04:35:18;;;;;;;3.00;2.60;;;;;;;9.90;96.09;99503.13;640980;221;24846;-73
2021/05/14 04:37:46;;;;;;;5.03;2.60;;;;;;;10.15;93.73;99498.32;640761;222;24817;-74
2021/05/14 04:40:15;;;;;;;2.93;2.70;;;;;;;10.34;92.09;99498.05;648048;218;25023;-74
2021/05/14 04:42:43;;;;;;;2.57;2.20;;;;;;;10.59;91.03;99495.45;653132;218;24787;-74
2021/05/14 04:45:12;;;;;;;2.23;2.13;;;;;;;11.11;88.83;99490.66;646906;219;24857;-74
2021/05/14 04:47:40;;;;;;;3.70;2.20;;;;;;;11.35;89.94;99488.97;651277;217;24787;-76
2021/05/14 04:50:11;;;;;;;5.30;2.43;;;;;;;11.55;86.83;99484.52;653327;217;24797;-77
2021/05/14 04:52:37;;;;;;;3.50;2.77;;;;;;;11.25;87.77;99488.67;659117;217;24828;-74
2021/05/14 04:55:07;;;;;;;2.50;2.20;;;;;;;11.62;87.41;99487.24;651592;217;24788;-74
2021/05/14 04:57:35;;;;;;;3.10;1.90;;;;;;;11.72;85.25;99480.53;654652;217;24784;-74
2021/05/14 05:00:03;;;;;;;1.93;1.83;;;;;;;11.53;86.56;99489.55;653541;217;24811;-74
2021/05/14 05:02:31;;;;;;;2.63;2.10;;;;;;;12.13;86.04;99487.16;649739;217;26911;-74
2021/05/14 05:04:59;;;;;;;2.90;2.30;;;;;;;12.36;82.72;99478.02;658649;217;25891;-74
2021/05/14 05:07:27;;;;;;;3.13;2.43;;;;;;;12.74;82.16;99478.05;653124;217;32581;-74
2021/05/14 05:09:55;;;;;;;2.70;1.90;;;;;;;13.23;80.09;99478.88;648139;217;32766;-74
2021/05/14 05:12:23;;;;;;;2.10;1.90;;;;;;;13.22;79.98;99476.76;653136;217;23806;-74
2021/05/14 05:14:52;;;;;;;2.23;1.83;;;;;;;13.17;81.16;99483.00;660786;217;24799;-74
2021/05/14 05:17:20;;;;;;;2.43;1.53;;;;;;;13.31;79.29;99479.61;659850;217;23797;-74
2021/05/14 05:19:47;;;;;;;2.20;2.00;;;;;;;13.59;79.43;99482.37;659052;217;25136;-74
2021/05/14 05:22:16;;;;;;;2.10;1.90;;;;;;;13.51;79.30;99482.95;654935;217;23788;-74
2021/05/14 05:24:44;;;;;;;3.00;1.70;;;;;;;12.83;80.62;99493.95;651207;217;27965;-75
2021/05/14 05:27:13;;;;;;;1.70;1.60;;;;;;;12.30;82.44;99502.20;645179;221;26299;-74
2021/05/14 05:29:40;;;;;;;10.23;1.90;;;;;;;12.54;82.88;99516.06;642886;221;24827;-74
2021/05/14 05:32:08;;;;;;;1.80;1.47;;;;;;;12.02;84.07;99514.92;644695;220;24861;-74
2021/05/14 05:34:37;;;;;;;3.33;1.93;;;;;;;12.14;84.73;99520.56;640755;221;24887;-74
2021/05/14 05:37:04;;;;;;;1.83;1.70;;;;;;;12.24;84.85;99525.03;641129;222;23872;-74
2021/05/14 05:39:32;;;;;;;1.77;1.67;;;;;;;12.39;83.45;99519.92;640303;221;24899;-74
2021/05/14 05:42:00;;;;;;;1.80;1.60;;;;;;;12.01;84.81;99518.52;636137;221;32688;-74
2021/05/14 05:44:27;;;;;;;3.67;2.33;;;;;;;11.67;85.87;99528.40;641451;221;28029;-74
2021/05/14 05:46:56;;;;;;;5.87;1.93;;;;;;;11.79;87.53;99535.70;654924;218;23812;-74
2021/05/14 05:49:23;;;;;;;1.80;1.70;;;;;;;12.13;85.88;99530.67;646273;222;24902;-74
2021/05/14 05:51:53;;;;;;;2.03;1.83;;;;;;;12.43;84.07;99529.01;644105;222;24832;-75
2021/05/14 05:54:19;;;;;;;2.17;2.00;;;;;;;12.77;83.78;99531.17;652238;217;24801;-76
2021/05/14 05:56:50;;;;;;;3.07;1.97;;;;;;;12.52;83.95;99534.95;639572;221;24843;-76
2021/05/14 05:59:16;;;;;;;2.30;1.70;;;;;;;12.16;85.43;99532.92;632903;220;32764;-78
2021/05/14 06:01:43;;;;;;;1.90;1.80;;;;;;;11.46;88.54;99551.92;650131;221;24838;-75
2021/05/14 06:04:11;;;;;;;2.80;1.77;;;;;;;11.89;88.38;99549.35;626438;225;24933;-76
2021/05/14 06:06:39;;;;;;;1.47;1.37;;;;;;;12.45;85.90;99542.19;646551;221;24831;-74
2021/05/14 06:09:09;;;;;;;1.50;1.40;;;;;;;12.76;85.04;99537.39;637836;217;25074;-74
2021/05/14 06:11:37;;;;;;;3.87;1.70;;;;;;;13.02;83.59;99537.00;648068;216;32637;-75
2021/05/14 06:14:05;;;;;;;1.73;1.47;;;;;;;13.21;83.73;99532.59;652168;218;23805;-74
2021/05/14 06:16:33;;;;;;;2.50;1.47;;;;;;;13.18;83.27;99535.56;645000;221;27053;-75
2021/05/14 06:19:07;;;;;;;1.17;1.07;;;;;;;13.42;82.26;99537.13;648629;218;23885;-74
2021/05/14 06:21:31;;;;;;;1.30;1.20;;;;;;;13.72;81.24;99534.48;639633;218;32470;-73
2021/05/14 06:23:58;;;;;;;1.30;1.20;;;;;;;13.72;81.18;99538.41;642813;221;23865;-74
2021/05/14 06:26:26;;;;;;;3.67;1.47;;;;;;;13.12;83.35;99541.98;650616;218;24785;-74
2021/05/14 06:28:54;;;;;;;1.60;1.20;;;;;;;13.03;83.34;99545.95;648505;218;28225;-74
2021/05/14 06:31:23;;;;;;;2.50;1.33;;;;;;;13.03;84.31;99551.67;638862;221;24947;-74
2021/05/14 06:33:51;;;;;;;3.00;1.27;;;;;;;13.11;82.36;99547.70;639414;221;24862;-75
2021/05/14 06:36:19;;;;;;;1.73;1.10;;;;;;;13.44;83.65;99552.61;649339;217;32746;-75
2021/05/14 06:38:47;;;;;;;3.33;1.20;;;;;;;14.03;80.35;99536.86;649240;217;32745;-74
2021/05/14 06:41:15;;;;;;;1.83;1.10;;;;;;;14.10;79.96;99532.53;642585;221;23694;-74
2021/05/14 06:43:43;;;;;;;1.40;0.93;;;;;;;13.32;81.57;99537.88;638407;221;24529;-74
2021/05/14 06:46:11;;;;;;;1.27;1.07;;;;;;;13.30;83.23;99551.61;650490;217;24784;-74
2021/05/14 06:48:41;;;;;;;1.17;1.00;;;;;;;13.09;83.28;99547.06;642421;222;28054;-74
2021/05/14 06:51:07;;;;;;;2.00;1.23;;;;;;;13.07;83.26;99547.22;648132;218;24842;-74
2021/05/14 06:53:35;;;;;;;1.30;0.90;;;;;;;13.39;82.23;99544.51;645945;218;24836;-74
2021/05/14 06:56:04;;;;;;;3.47;1.00;;;;;;;13.82;80.77;99546.79;637507;221;25325;-74
2021/05/14 06:58:32;;;;;;;1.40;0.80;;;;;;;13.19;81.99;99543.71;640052;222;24819;-75
2021/05/14 07:01:00;;;;;;;1.00;0.90;;;;;;;13.72;81.64;99547.55;656002;217;26922;-75
2021/05/14 07:03:28;;;;;;;1.53;1.00;;;;;;;14.83;79.77;99532.25;654770;217;24818;-75
2021/05/14 07:05:56;;;;;;;1.10;0.90;;;;;;;14.82;75.56;99523.28;640342;222;25129;-75
2021/05/14 07:08:24;;;;;;;1.07;0.80;;;;;;;14.53;78.46;99523.74;644596;221;24811;-75
2021/05/14 07:10:52;;;;;;;3.03;0.80;;;;;;;15.12;78.26;99533.88;637290;222;24881;-75
2021/05/14 07:13:20;;;;;;;1.00;0.80;;;;;;;15.96;73.76;99516.68;644518;217;43495;-75
2021/05/14 07:15:48;;;;;;;1.70;0.80;;;;;;;15.55;74.50;99519.81;649797;218;23744;-75
2021/05/14 07:18:16;;;;;;;2.45;1.30;;;;;;;16.78;71.67;99512.20;646208;218;32502;-75
2021/05/14 07:20:44;;;;;;;1.37;0.90;;;;;;;16.99;70.37;99514.59;641042;222;23696;-75
2021/05/14 07:23:12;;;;;;;1.40;0.83;;;;;;;15.82;71.80;99518.14;654411;216;24138;-75
2021/05/14 07:25:40;;;;;;;1.10;0.80;;;;;;;16.62;71.50;99516.81;651342;217;33299;-75
2021/05/14 07:28:08;;;;;;;1.30;0.80;;;;;;;16.09;71.04;99522.47;656615;217;24767;-75
2021/05/14 07:30:36;;;;;;;0.60;0.60;;;;;;;15.30;73.25;99530.75;645985;221;23845;-75
2021/05/14 07:33:04;;;;;;;0.77;0.77;;;;;;;15.59;73.45;99538.91;654328;217;24931;-75
2021/05/14 07:35:32;;;;;;;1.07;0.80;;;;;;;16.77;71.77;99528.46;640927;221;23826;-75
2021/05/14 07:38:02;;;;;;;2.10;0.83;;;;;;;16.35;72.43;99532.73;655704;218;24776;-75
2021/05/14 07:40:30;;;;;;;2.67;0.90;;;;;;;15.07;73.06;99530.22;642859;221;26986;-75
2021/05/14 07:42:59;;;;;;;0.70;0.70;;;;;;;16.66;72.82;99528.22;644983;220;30302;-76
2021/05/14 07:45:28;;;;;;;1.33;0.80;;;;;;;16.17;71.31;99521.47;644850;221;24818;-75
2021/05/14 07:47:56;;;;;;;0.83;0.60;;;;;;;15.76;70.40;99515.78;627252;225;24928;-75
2021/05/14 07:50:26;;;;;;;1.83;0.80;;;;;;;15.61;71.41;99522.98;639613;221;23865;-75
2021/05/14 07:52:52;;;;;;;2.00;0.70;;;;;;;16.42;70.27;99509.41;644823;221;25050;-75
2021/05/14 07:55:20;;;;;;;0.90;0.60;;;;;;;16.12;68.80;99503.70;640036;221;32676;-75
2021/05/14 07:57:48;;;;;;;0.60;0.60;;;;;;;15.82;70.13;99511.09;650673;217;23724;-75
2021/05/14 08:00:17;;;;;;;0.57;0.50;;;;;;;15.92;71.21;99512.84;648479;218;23869;-75
2021/05/14 08:02:45;;;;;;;2.90;1.10;;;;;;;17.11;68.98;99511.65;645479;222;23912;-75
2021/05/14 08:05:13;;;;;;;1.37;0.90;;;;;;;17.47;66.92;99500.66;656014;217;23823;-75
2021/05/14 08:07:41;;;;;;;0.73;0.73;;;;;;;17.02;68.88;99498.41;654676;217;23815;-75
2021/05/14 08:10:10;;;;;;;2.50;0.73;;;;;;;16.62;69.18;99506.31;640573;222;24792;-75
2021/05/14 08:12:38;;;;;;;0.60;0.60;;;;;;;16.56;67.57;99503.66;639884;222;23835;-75
2021/05/14 08:15:08;;;;;;;1.10;0.70;;;;;;;16.35;68.89;99498.11;645106;218;23897;-74
2021/05/14 08:17:37;;;;;;;1.20;0.70;;;;;;;16.86;67.96;99509.34;637113;221;24804;-75
2021/05/14 08:20:07;;;;;;;1.80;0.70;;;;;;;17.37;66.79;99504.73;636147;222;24874;-75
2021/05/14 08:22:34;;;;;;;1.37;0.70;;;;;;;17.60;66.36;99499.00;643084;222;24172;-75
2021/05/14 08:25:02;;;;;;;1.07;0.60;;;;;;;18.41;64.33;99500.48;634200;222;23834;-75
2021/05/14 08:27:30;;;;;;;1.85;0.80;;;;;;;18.76;62.94;99485.06;646619;217;43113;-75
2021/05/14 08:29:58;;;;;;;5.70;0.70;;;;;;;18.23;64.51;99482.80;640204;222;23695;-75
2021/05/14 08:32:26;;;;;;;0.70;0.60;;;;;;;18.62;63.73;99488.28;642860;222;23895;-75
2021/05/14 08:34:54;;;;;;;1.00;0.80;;;;;;;19.25;61.31;99479.40;651218;217;24799;-75
2021/05/14 08:37:22;;;;;;;1.53;0.80;;;;;;;18.36;62.69;99477.44;647803;218;23781;-75
2021/05/14 08:39:50;;;;;;;2.50;0.60;;;;;;;18.00;63.19;99489.91;649614;217;24065;-75
2021/05/14 08:42:18;;;;;;;1.37;0.60;;;;;;;17.47;65.34;99495.91;647517;220;23831;-75
2021/05/14 08:44:46;;;;;;;2.70;0.70;;;;;;;18.56;63.53;99495.72;639556;221;32591;-75
2021/05/14 08:47:14;;;;;;;0.90;0.60;;;;;;;18.67;62.34;99492.93;642034;221;22723;-75
2021/05/14 08:49:42;;;;;;;1.70;0.83;;;;;;;18.51;61.79;99490.80;649650;218;24821;-75
2021/05/14 08:52:11;;;;;;;0.80;0.60;;;;;;;18.67;61.16;99488.98;652186;219;24770;-75
2021/05/14 08:54:42;;;;;;;0.60;0.60;;;;;;;17.01;64.97;99494.17;652192;219;23784;-75
2021/05/14 08:57:06;;;;;;;0.83;0.70;;;;;;;17.21;66.47;99508.10;639660;222;23858;-76
2021/05/14 08:59:34;;;;;;;2.43;0.83;;;;;;;18.58;65.25;99499.45;641872;221;23844;-75
2021/05/14 09:02:03;;;;;;;1.03;0.70;;;;;;;17.11;63.63;99494.56;641258;221;23860;-75
2021/05/14 09:04:33;;;;;;;3.47;0.80;;;;;;;16.86;65.75;99500.96;641091;221;23846;-74
2021/05/14 09:07:01;;;;;;;1.10;0.70;;;;;;;17.63;64.04;99490.69;642087;221;23941;-74
2021/05/14 09:09:29;;;;;;;0.90;0.60;;;;;;;17.28;65.15;99502.01;639666;221;23878;-74
2021/05/14 09:11:57;;;;;;;1.80;0.80;;;;;;;17.20;65.38;99499.11;650546;217;32475;-75
2021/05/14 09:14:31;;;;;;;2.90;1.00;;;;;;;17.47;65.15;99502.48;651833;218;22712;-74
2021/05/14 09:17:05;;;;;;;2.40;0.77;;;;;;;18.81;63.10;99495.75;654426;218;24843;-75
2021/05/14 09:19:33;;;;;;;1.13;0.67;;;;;;;19.23;59.78;99485.41;652494;218;24829;-74
2021/05/14 09:22:08;;;;;;;0.83;0.73;;;;;;;19.11;59.89;99473.46;639813;222;23863;-77
2021/05/14 09:24:36;;;;;;;0.70;0.50;;;;;;;19.98;59.26;99478.02;649603;221;24343;-77
2021/05/14 09:27:18;;;;;;;0.90;0.70;;;;;;;20.18;57.57;99470.34;646318;217;32456;-75
2021/05/14 09:29:46;;;;;;;1.10;0.63;;;;;;;19.67;58.01;99471.64;650409;217;22706;-75
2021/05/14 09:32:20;;;;;;;1.53;0.70;;;;;;;19.35;59.99;99475.75;653108;217;24864;-74
2021/05/14 09:34:50;;;;;;;2.40;0.70;;;;;;;18.19;58.34;99477.67;644215;218;32475;-74
2021/05/14 09:37:18;;;;;;;0.70;0.70;;;;;;;18.87;59.34;99479.09;656128;218;22721;-74
2021/05/14 09:39:46;;;;;;;1.20;0.90;;;;;;;18.59;61.29;99482.65;639156;221;23830;-75
2021/05/14 09:42:14;;;;;;;1.30;0.70;;;;;;;18.17;61.93;99488.12;639317;222;23843;-75
2021/05/14 09:44:42;;;;;;;0.83;0.70;;;;;;;18.31;61.73;99489.13;647699;218;23843;-74
2021/05/14 09:47:10;;;;;;;1.60;0.65;;;;;;;18.24;60.84;99484.41;640065;221;32444;-75
2021/05/14 09:49:38;;;;;;;1.00;0.60;;;;;;;18.14;61.72;99486.69;654147;218;22700;-74
2021/05/14 09:52:08;;;;;;;1.50;0.70;;;;;;;18.06;61.75;99491.71;648400;218;23811;-74
2021/05/14 09:54:35;;;;;;;1.63;0.77;;;;;;;18.35;61.72;99492.95;646686;218;23843;-74
2021/05/14 09:57:14;;;;;;;0.90;0.60;;;;;;;18.12;63.05;99492.68;648146;218;23785;-75
2021/05/14 09:59:35;;;;;;;1.10;0.90;;;;;;;17.65;61.86;99494.72;652347;218;23789;-75
2021/05/14 10:02:02;;;;;;;1.00;0.90;;;;;;;18.16;63.11;99489.95;646988;218;23785;-75
2021/05/14 10:04:34;;;;;;;1.47;0.80;;;;;;;18.54;61.84;99485.91;647747;218;23797;-75
2021/05/14 10:06:58;;;;;;;0.80;0.60;;;;;;;18.97;60.80;99484.65;653036;218;26840;-75
2021/05/14 10:09:27;;;;;;;0.80;0.67;;;;;;;19.81;58.90;99469.12;649515;218;24820;-75
2021/05/14 10:11:55;;;;;;;1.30;0.70;;;;;;;20.23;57.72;99454.09;642053;218;32457;-75
2021/05/14 10:14:23;;;;;;;0.90;0.70;;;;;;;19.01;59.50;99460.00;645225;221;23704;-75
2021/05/14 10:16:51;;;;;;;1.80;0.80;;;;;;;19.96;60.50;99457.64;640984;221;23873;-75
2021/05/14 10:19:19;;;;;;;0.97;0.60;;;;;;;18.96;59.25;99451.41;653866;217;25025;-75
2021/05/14 10:21:47;;;;;;;1.80;0.70;;;;;;;19.85;59.98;99451.83;641822;218;32442;-75
2021/05/14 10:24:28;;;;;;;1.03;0.97;;;;;;;20.42;58.29;99444.30;648461;218;22695;-75
2021/05/14 10:26:57;;;;;;;1.00;0.73;;;;;;;20.40;58.59;99439.70;640932;222;24027;-75
2021/05/14 10:29:25;;;;;;;1.30;0.80;;;;;;;20.90;58.79;99435.33;636177;221;32631;-75
2021/05/14 10:31:53;;;;;;;0.77;0.70;;;;;;;21.75;56.34;99436.80;639255;222;23919;-75
2021/05/14 10:34:21;;;;;;;1.13;0.93;;;;;;;21.25;54.99;99422.87;639986;222;27037;-75
2021/05/14 10:36:50;;;;;;;1.37;0.70;;;;;;;20.84;54.79;99421.73;651367;217;24831;-75
2021/05/14 10:39:26;;;;;;;0.60;0.50;;;;;;;21.28;54.94;99419.78;652715;217;23782;-75
2021/05/14 10:41:50;;;;;;;1.03;0.50;;;;;;;19.63;56.42;99423.80;641440;222;23845;-74
2021/05/14 10:44:18;;;;;;;0.50;0.50;;;;;;;19.61;54.97;99418.45;654222;217;28036;-74
2021/05/14 10:46:46;;;;;;;1.37;0.60;;;;;;;20.03;55.37;99421.92;644022;222;23817;-75
2021/05/14 10:49:14;;;;;;;3.90;0.77;;;;;;;19.52;57.70;99429.27;654923;217;23819;-75
2021/05/14 10:52:06;;;;;;;23.70;2.20;;;;;;;19.43;58.99;99435.90;637460;222;23882;-75
2021/05/14 10:54:45;;;;;;;0.83;0.60;;;;;;;19.93;57.47;99438.30;641474;221;23899;-75
2021/05/14 10:57:13;;;;;;;0.87;0.50;;;;;;;18.62;60.49;99440.06;648023;219;23806;-74
2021/05/14 10:59:41;;;;;;;0.60;0.60;;;;;;;18.17;61.03;99446.81;642873;220;27997;-75
2021/05/14 11:02:20;;;;;;;2.20;0.80;;;;;;;18.04;59.33;99444.27;636070;221;23857;-75
2021/05/14 11:04:48;;;;;;;1.10;0.60;;;;;;;17.69;60.34;99453.85;637208;221;24912;-76
2021/05/14 11:07:33;;;;;;;0.90;0.60;;;;;;;17.85;59.97;99438.59;631284;221;32642;-75
2021/05/14 11:10:12;;;;;;;0.60;0.60;;;;;;;17.27;61.38;99447.83;637634;222;22753;-74
2021/05/14 11:12:40;;;;;;;1.00;0.80;;;;;;;17.32;63.64;99457.23;644756;220;23835;-74
2021/05/14 11:15:12;;;;;;;1.10;0.60;;;;;;;17.33;61.64;99456.22;646959;221;23820;-75
2021/05/14 11:17:40;;;;;;;0.90;0.80;;;;;;;17.35;62.07;99456.81;645973;220;23846;-75
2021/05/14 11:20:17;;;;;;;1.77;1.00;;;;;;;17.83;61.13;99464.31;645282;221;23814;-75
2021/05/14 11:22:45;;;;;;;1.33;0.90;;;;;;;17.90;62.98;99463.27;629517;226;23904;-75
2021/05/14 11:25:14;;;;;;;0.70;0.70;;;;;;;18.07;61.87;99462.25;639549;221;24836;-75
2021/05/14 11:27:42;;;;;;;5.23;1.07;;;;;;;17.43;63.86;99469.20;652119;217;23786;-75
2021/05/14 11:30:12;;;;;;;1.70;0.70;;;;;;;17.09;63.72;99470.32;639980;221;26992;-74
2021/05/14 11:32:38;;;;;;;0.87;0.60;;;;;;;17.05;64.23;99467.81;639615;221;24811;-75
2021/05/14 11:35:11;;;;;;;0.70;0.70;;;;;;;17.68;63.37;99468.02;638854;221;23853;-74
2021/05/14 11:37:39;;;;;;;0.80;0.57;;;;;;;17.03;60.46;99455.87;643734;222;23810;-74
2021/05/14 11:40:14;;;;;;;0.80;0.70;;;;;;;17.25;55.41;99440.16;640762;220;23872;-76
2021/05/14 11:42:44;;;;;;;0.50;0.50;;;;;;;17.83;55.35;99424.84;641747;222;23827;-75
2021/05/14 11:45:13;;;;;;;0.60;0.50;;;;;;;17.55;54.62;99423.85;643041;222;24836;-74